Time;durP1;ratioP1;P1;durP2;ratioP2;P2;SDS_P1;SDS_P2;PMS_P1;PMS_P2;Temp;Humidity;BMP_temperature;BMP_pressure;BME280_temperature;BME280_humidity;BME280_pressure;Samples;Min_cycle;Max_cycle;Signal;HPM_P1;HPM_P2
2021/01/28 00:01:07;;;;;;;72.13;29.40;;;8.50;95.40;;;;;;4900292;29;20036;-66
2021/01/28 00:03:32;;;;;;;53.58;28.65;;;8.40;95.40;;;;;;4900008;29;20091;-66
2021/01/28 00:05:58;;;;;;;60.28;29.13;;;8.40;95.40;;;;;;4882826;29;20024;-67
2021/01/28 00:08:23;;;;;;;66.25;28.85;;;8.50;95.40;;;;;;4899763;29;20386;-67
2021/01/28 00:10:49;;;;;;;56.75;29.48;;;8.50;95.40;;;;;;4898971;29;20394;-66
2021/01/28 00:13:14;;;;;;;68.13;29.85;;;8.50;95.40;;;;;;4899460;29;20028;-68
2021/01/28 00:15:40;;;;;;;64.78;30.15;;;8.50;95.40;;;;;;4899866;29;20028;-67
2021/01/28 00:18:08;;;;;;;69.43;31.58;;;8.40;95.40;;;;;;4900145;29;20020;-66
2021/01/28 00:20:45;;;;;;;71.13;30.85;;;8.50;95.30;;;;;;4882310;29;20386;-67
2021/01/28 00:23:12;;;;;;;58.70;28.15;;;8.50;95.30;;;;;;4899900;29;20385;-66
2021/01/28 00:25:38;;;;;;;72.30;29.73;;;8.40;95.30;;;;;;4899571;29;20159;-66
2021/01/28 00:28:07;;;;;;;51.92;27.55;;;8.50;95.30;;;;;;4899193;29;20040;-66
2021/01/28 00:30:36;;;;;;;54.90;29.70;;;8.50;95.20;;;;;;4899487;29;20028;-67
2021/01/28 00:33:04;;;;;;;68.30;33.28;;;8.50;95.20;;;;;;4899311;29;20032;-67
2021/01/28 00:35:33;;;;;;;60.63;29.27;;;8.50;95.20;;;;;;4899382;29;20087;-66
2021/01/28 00:37:59;;;;;;;71.50;30.80;;;8.50;95.20;;;;;;4882774;29;20366;-67
2021/01/28 00:40:27;;;;;;;66.43;33.30;;;8.50;95.20;;;;;;4898592;29;20211;-67
2021/01/28 00:42:53;;;;;;;60.60;32.10;;;8.50;95.40;;;;;;4899642;29;20025;-66
2021/01/28 00:45:22;;;;;;;66.18;33.33;;;8.50;95.10;;;;;;4899251;29;20073;-67
2021/01/28 00:47:48;;;;;;;58.42;31.20;;;8.50;95.10;;;;;;4898849;29;20033;-66
2021/01/28 00:50:16;;;;;;;75.82;30.25;;;8.50;95.20;;;;;;4899338;29;20025;-67
2021/01/28 00:52:42;;;;;;;59.40;29.40;;;8.50;95.20;;;;;;4896570;29;20448;-66
2021/01/28 00:55:11;;;;;;;70.85;31.08;;;8.50;95.10;;;;;;4899576;29;20037;-67
2021/01/28 00:57:37;;;;;;;68.60;31.30;;;8.50;95.10;;;;;;4882066;29;20087;-66
2021/01/28 01:00:31;;;;;;;63.38;31.73;;;8.50;95.10;;;;;;4898608;29;20051;-66
2021/01/28 01:02:57;;;;;;;66.82;28.98;;;8.50;95.20;;;;;;4893775;29;20056;-66
2021/01/28 01:05:25;;;;;;;68.75;29.95;;;8.60;95.10;;;;;;4898950;29;20024;-66
2021/01/28 01:07:51;;;;;;;70.45;31.67;;;8.60;95.10;;;;;;4898754;29;20033;-66
2021/01/28 01:10:28;;;;;;;65.70;31.33;;;8.60;95.10;;;;;;4899011;29;20025;-67
2021/01/28 01:12:54;;;;;;;58.08;30.95;;;8.50;95.10;;;;;;4898922;29;20032;-67
2021/01/28 01:15:20;;;;;;;66.22;29.65;;;8.50;95.10;;;;;;4898038;29;20028;-66
2021/01/28 01:17:45;;;;;;;63.65;31.48;;;8.50;95.10;;;;;;4882078;29;20072;-66
2021/01/28 01:20:12;;;;;;;63.25;30.77;;;8.60;95.10;;;;;;4898692;29;20465;-65
2021/01/28 01:22:37;;;;;;;66.20;28.30;;;8.60;95.10;;;;;;4897763;29;20116;-66
2021/01/28 01:25:04;;;;;;;76.30;31.40;;;8.60;95.00;;;;;;4898966;29;20359;-68
2021/01/28 01:27:29;;;;;;;62.00;29.95;;;8.60;95.10;;;;;;4898581;29;20032;-66
2021/01/28 01:29:55;;;;;;;69.50;30.08;;;8.60;95.10;;;;;;4881230;29;20025;-66
2021/01/28 01:32:20;;;;;;;69.25;30.42;;;8.60;95.10;;;;;;4898478;29;20040;-67
2021/01/28 01:34:46;;;;;;;63.20;29.10;;;8.60;95.10;;;;;;4897839;29;20017;-66
2021/01/28 01:37:11;;;;;;;64.90;28.35;;;8.60;95.10;;;;;;4898878;29;20505;-67
2021/01/28 01:39:37;;;;;;;56.67;27.38;;;8.60;95.10;;;;;;4898155;29;20033;-66
2021/01/28 01:42:07;;;;;;;61.72;28.52;;;8.60;95.10;;;;;;4897834;29;20024;-66
2021/01/28 01:44:33;;;;;;;66.65;29.90;;;8.60;95.10;;;;;;4898075;29;20486;-67
2021/01/28 01:47:14;;;;;;;66.60;29.77;;;8.60;95.10;;;;;;4898280;29;20111;-66
2021/01/28 01:49:40;;;;;;;69.25;29.90;;;8.50;95.10;;;;;;4897194;29;20021;-66
2021/01/28 01:52:05;;;;;;;65.95;28.48;;;8.50;95.10;;;;;;4898505;29;20550;-67
2021/01/28 01:54:36;;;;;;;73.82;30.35;;;8.50;95.10;;;;;;4897945;29;20033;-66
2021/01/28 01:57:06;;;;;;;64.35;27.92;;;8.50;95.20;;;;;;4880714;29;20056;-67
2021/01/28 01:59:43;;;;;;;62.40;27.92;;;8.50;95.20;;;;;;4897967;29;20028;-66
2021/01/28 02:02:14;;;;;;;74.07;31.23;;;8.50;95.10;;;;;;4898117;29;20021;-67
2021/01/28 02:04:40;;;;;;;82.25;30.35;;;8.50;95.10;;;;;;4897438;29;20025;-66
2021/01/28 02:07:14;;;;;;;77.57;28.67;;;8.50;95.10;;;;;;4898269;29;20531;-66
2021/01/28 02:09:41;;;;;;;73.28;30.42;;;8.50;95.10;;;;;;4897759;29;20024;-66
2021/01/28 02:12:08;;;;;;;62.67;27.23;;;8.50;95.10;;;;;;4897314;29;20052;-67
2021/01/28 02:14:34;;;;;;;76.95;27.70;;;8.50;95.10;;;;;;4880965;29;20029;-66
2021/01/28 02:17:08;;;;;;;70.32;27.88;;;8.60;95.10;;;;;;4880573;29;20548;-66
2021/01/28 02:19:46;;;;;;;61.92;28.02;;;8.60;95.00;;;;;;4897522;29;20029;-67
2021/01/28 02:22:12;;;;;;;64.30;27.75;;;8.50;95.00;;;;;;4898034;29;20024;-66
2021/01/28 02:24:56;;;;;;;87.55;31.27;;;8.60;95.00;;;;;;4896899;29;20025;-67
2021/01/28 02:27:22;;;;;;;88.03;29.10;;;8.60;95.00;;;;;;4897477;29;20028;-66
2021/01/28 02:29:49;;;;;;;56.65;28.42;;;8.60;95.00;;;;;;4897719;29;20035;-67
2021/01/28 02:32:15;;;;;;;60.28;29.05;;;8.50;95.00;;;;;;4897113;29;20040;-66
2021/01/28 02:34:45;;;;;;;71.05;29.15;;;8.50;95.00;;;;;;4896918;29;20474;-67
2021/01/28 02:37:15;;;;;;;68.90;28.73;;;8.50;95.00;;;;;;4897648;29;20028;-66
2021/01/28 02:39:41;;;;;;;70.85;28.60;;;8.50;95.00;;;;;;4896708;29;20112;-66
2021/01/28 02:42:15;;;;;;;77.57;29.27;;;8.60;95.00;;;;;;4897643;29;20512;-67
2021/01/28 02:44:41;;;;;;;85.68;27.65;;;8.60;95.00;;;;;;4897387;29;20029;-66
2021/01/28 02:47:07;;;;;;;90.38;30.65;;;8.60;95.00;;;;;;4896909;29;20051;-67
2021/01/28 02:49:33;;;;;;;91.78;27.73;;;8.60;94.90;;;;;;4897222;29;20061;-66
2021/01/28 02:51:58;;;;;;;79.40;28.30;;;8.70;94.90;;;;;;4880183;29;20029;-68
2021/01/28 02:54:24;;;;;;;74.20;27.65;;;8.70;94.90;;;;;;4897251;29;20478;-67
2021/01/28 02:56:50;;;;;;;81.70;28.38;;;8.70;94.90;;;;;;4897132;29;20053;-66
2021/01/28 02:59:16;;;;;;;72.80;27.60;;;8.70;94.90;;;;;;4896776;29;20103;-66
2021/01/28 03:01:42;;;;;;;79.90;28.88;;;8.70;94.90;;;;;;4897372;29;20025;-66
2021/01/28 03:04:11;;;;;;;82.97;30.08;;;8.70;94.90;;;;;;4897450;29;20133;-65
2021/01/28 03:06:37;;;;;;;92.43;31.27;;;8.70;94.80;;;;;;4879796;29;20149;-65
2021/01/28 03:09:06;;;;;;;75.82;31.40;;;8.70;94.80;;;;;;4897463;29;20092;-67
2021/01/28 03:11:32;;;;;;;92.40;31.20;;;8.70;94.80;;;;;;4896989;29;20032;-66
2021/01/28 03:13:58;;;;;;;113.03;32.88;;;8.80;94.80;;;;;;4896769;29;20036;-68
2021/01/28 03:16:24;;;;;;;103.00;33.40;;;8.80;94.80;;;;;;4897135;29;20063;-66
2021/01/28 03:18:50;;;;;;;85.22;31.52;;;8.80;94.80;;;;;;4897289;29;20029;-67
2021/01/28 03:21:15;;;;;;;91.97;34.50;;;8.70;94.70;;;;;;4896783;29;20352;-66
2021/01/28 03:23:41;;;;;;;97.05;32.58;;;8.70;94.80;;;;;;4897041;29;20549;-67
2021/01/28 03:26:07;;;;;;;114.63;32.45;;;8.60;94.80;;;;;;4897154;29;20562;-68
2021/01/28 03:28:33;;;;;;;73.15;31.45;;;8.60;94.90;;;;;;4896511;29;20103;-68
2021/01/28 03:30:58;;;;;;;114.18;34.33;;;8.70;94.90;;;;;;4897404;29;20068;-67
2021/01/28 03:33:24;;;;;;;111.80;33.63;;;8.70;94.90;;;;;;4881177;29;20075;-66
2021/01/28 03:35:50;;;;;;;181.15;36.15;;;8.70;94.90;;;;;;4897680;29;20056;-66
2021/01/28 03:38:17;;;;;;;121.85;33.13;;;8.70;94.90;;;;;;4896988;29;20032;-66
2021/01/28 03:40:43;;;;;;;155.50;33.00;;;8.70;94.90;;;;;;4910201;29;20029;-67
2021/01/28 03:43:09;;;;;;;116.28;32.65;;;8.70;94.90;;;;;;4915349;29;20035;-66
2021/01/28 03:45:35;;;;;;;114.82;33.53;;;8.70;94.90;;;;;;4917553;29;20381;-68
2021/01/28 03:48:01;;;;;;;180.13;34.28;;;8.70;94.90;;;;;;4919369;29;20107;-68
2021/01/28 03:50:30;;;;;;;95.00;32.42;;;8.70;94.90;;;;;;4918506;29;20111;-66
2021/01/28 03:52:56;;;;;;;118.43;36.15;;;8.80;94.90;;;;;;4905720;29;20043;-67
2021/01/28 03:55:22;;;;;;;117.30;30.98;;;8.70;94.90;;;;;;4899489;29;20021;-66
2021/01/28 03:57:51;;;;;;;124.35;34.40;;;8.70;94.90;;;;;;4900282;29;20052;-67
2021/01/28 04:00:20;;;;;;;138.55;32.75;;;8.70;94.90;;;;;;4900197;29;20029;-67
2021/01/28 04:02:46;;;;;;;69.47;24.38;;;8.70;94.90;;;;;;4900006;29;20486;-67
2021/01/28 04:05:14;;;;;;;44.95;20.70;;;8.70;94.70;;;;;;4900273;29;20024;-66
2021/01/28 04:07:39;;;;;;;59.38;20.17;;;8.60;94.70;;;;;;4899746;29;20499;-67
2021/01/28 04:10:07;;;;;;;49.60;19.20;;;8.60;94.60;;;;;;4899219;29;20021;-66
2021/01/28 04:12:33;;;;;;;45.42;18.20;;;8.50;94.70;;;;;;4899717;29;20059;-67
2021/01/28 04:14:59;;;;;;;46.63;18.38;;;8.50;94.60;;;;;;4900040;29;20021;-67
2021/01/28 04:17:25;;;;;;;41.08;17.58;;;8.40;94.90;;;;;;4899192;29;20033;-67
2021/01/28 04:19:50;;;;;;;37.30;17.42;;;8.30;94.60;;;;;;4900262;29;20040;-66
2021/01/28 04:22:16;;;;;;;43.38;17.52;;;8.20;94.60;;;;;;4900207;29;20039;-66
2021/01/28 04:24:41;;;;;;;42.72;15.57;;;8.20;94.70;;;;;;4899105;29;20028;-67
2021/01/28 04:27:08;;;;;;;35.80;15.73;;;8.20;94.80;;;;;;4899818;29;20108;-66
2021/01/28 04:29:34;;;;;;;35.45;15.40;;;8.10;94.80;;;;;;4893794;29;20063;-67
2021/01/28 04:32:00;;;;;;;34.60;14.10;;;8.10;94.90;;;;;;4899346;29;20063;-66
2021/01/28 04:34:26;;;;;;;33.92;14.07;;;8.10;94.90;;;;;;4899711;29;20020;-66
2021/01/28 04:36:51;;;;;;;36.65;12.98;;;8.10;94.90;;;;;;4898475;29;20028;-67
2021/01/28 04:39:17;;;;;;;39.47;12.57;;;8.10;94.90;;;;;;4898777;29;20072;-66
2021/01/28 04:41:43;;;;;;;35.58;11.80;;;8.10;94.80;;;;;;4899743;29;20054;-67
2021/01/28 04:44:11;;;;;;;37.88;11.52;;;8.10;94.80;;;;;;4899207;29;20040;-66
2021/01/28 04:46:43;;;;;;;32.05;12.05;;;8.10;94.80;;;;;;4898744;29;20057;-66
2021/01/28 04:49:12;;;;;;;41.92;12.73;;;8.10;94.80;;;;;;4898985;29;20513;-68
2021/01/28 04:51:41;;;;;;;43.38;12.65;;;8.20;94.80;;;;;;4885065;29;20087;-68
2021/01/28 04:54:22;;;;;;;42.85;13.27;;;8.10;94.80;;;;;;4899305;29;20541;-66
2021/01/28 04:56:54;;;;;;;38.88;10.77;;;8.10;94.80;;;;;;4906262;29;20048;-67
2021/01/28 04:59:28;;;;;;;42.45;11.80;;;8.10;94.80;;;;;;4903076;29;20100;-67
2021/01/28 05:01:54;;;;;;;29.27;10.68;;;8.10;94.80;;;;;;4899231;29;20028;-68
2021/01/28 05:04:21;;;;;;;32.13;9.50;;;8.10;94.80;;;;;;4898807;29;20032;-67
2021/01/28 05:06:51;;;;;;;29.30;8.68;;;8.10;94.70;;;;;;4898589;29;20021;-67
2021/01/28 05:09:18;;;;;;;29.80;9.68;;;8.10;94.70;;;;;;4899001;29;20024;-67
2021/01/28 05:11:55;;;;;;;25.75;10.02;;;8.00;94.60;;;;;;4897835;29;20027;-69
2021/01/28 05:14:31;;;;;;;24.75;9.70;;;8.00;94.60;;;;;;4898202;29;20400;-68
2021/01/28 05:17:00;;;;;;;26.35;11.30;;;8.00;94.60;;;;;;4899153;29;20423;-67
2021/01/28 05:19:38;;;;;;;27.77;10.68;;;8.00;94.60;;;;;;4898459;29;20028;-67
2021/01/28 05:22:10;;;;;;;22.00;8.80;;;8.00;94.60;;;;;;4898321;29;20059;-67
2021/01/28 05:24:41;;;;;;;23.77;11.20;;;7.90;94.60;;;;;;4898545;29;20084;-66
2021/01/28 05:27:26;;;;;;;17.63;8.82;;;8.00;94.60;;;;;;4898308;29;20017;-67
2021/01/28 05:29:56;;;;;;;19.20;8.13;;;7.90;94.60;;;;;;4898659;29;20103;-67
2021/01/28 05:32:33;;;;;;;16.77;8.48;;;7.90;94.60;;;;;;4898239;29;20458;-66
2021/01/28 05:35:25;;;;;;;21.15;8.00;;;7.90;94.60;;;;;;4898096;29;20366;-67
2021/01/28 05:38:33;;;;;;;18.83;6.25;;;7.90;94.60;;;;;;4898513;29;20537;-67
2021/01/28 05:41:00;;;;;;;17.13;6.20;;;7.90;94.60;;;;;;4885302;29;20556;-69
2021/01/28 05:43:28;;;;;;;15.25;6.57;;;7.90;94.60;;;;;;4898260;29;20041;-69
2021/01/28 05:46:09;;;;;;;21.88;6.57;;;7.90;94.60;;;;;;4898609;29;20028;-67
2021/01/28 05:48:34;;;;;;;16.42;6.07;;;7.90;94.60;;;;;;4897474;29;20025;-66
2021/01/28 05:51:18;;;;;;;23.67;5.95;;;7.90;94.50;;;;;;4881490;29;20020;-66
2021/01/28 05:54:03;;;;;;;19.63;5.72;;;7.90;94.50;;;;;;4898311;29;20059;-67
2021/01/28 05:56:33;;;;;;;14.43;5.20;;;7.80;94.40;;;;;;4896976;29;20040;-66
2021/01/28 05:59:08;;;;;;;15.93;4.72;;;7.80;94.50;;;;;;4898197;29;20063;-67
2021/01/28 06:01:48;;;;;;;15.88;4.85;;;7.80;94.50;;;;;;4897792;29;20029;-68
2021/01/28 06:04:33;;;;;;;12.52;5.05;;;7.70;94.50;;;;;;4897897;29;20113;-68
2021/01/28 06:07:13;;;;;;;10.35;4.13;;;7.70;94.60;;;;;;4881249;29;20393;-67
2021/01/28 06:09:58;;;;;;;13.57;4.40;;;7.70;94.60;;;;;;4896427;29;20112;-67
2021/01/28 06:12:46;;;;;;;13.15;4.18;;;7.70;94.50;;;;;;4897729;29;20041;-66
2021/01/28 06:15:20;;;;;;;13.70;4.25;;;7.70;94.50;;;;;;4881235;29;20033;-68
2021/01/28 06:18:19;;;;;;;7.30;3.33;;;7.70;94.50;;;;;;4897430;29;20028;-67
2021/01/28 06:21:19;;;;;;;12.00;3.30;;;7.70;94.40;;;;;;4897960;29;20477;-68
2021/01/28 06:24:29;;;;;;;11.05;3.38;;;7.70;94.50;;;;;;4880417;29;20033;-66
2021/01/28 06:27:18;;;;;;;12.68;3.75;;;7.70;94.50;;;;;;4898098;29;20614;-67
2021/01/28 06:30:01;;;;;;;10.10;3.83;;;7.70;94.50;;;;;;4897750;29;20088;-67
2021/01/28 06:32:47;;;;;;;6.40;4.00;;;7.60;94.50;;;;;;4897522;29;20036;-67
2021/01/28 06:35:36;;;;;;;5.10;3.20;;;7.60;94.60;;;;;;4897816;29;20033;-66
2021/01/28 06:38:29;;;;;;;8.73;3.10;;;7.60;94.60;;;;;;4897124;29;20028;-66
2021/01/28 06:41:00;;;;;;;10.13;4.07;;;7.50;94.60;;;;;;4897863;29;20033;-69
2021/01/28 06:43:39;;;;;;;9.53;4.00;;;7.50;94.60;;;;;;4897340;29;20056;-67
2021/01/28 06:46:30;;;;;;;9.07;3.95;;;7.50;94.60;;;;;;4897178;29;20033;-66
2021/01/28 06:49:22;;;;;;;12.63;4.05;;;7.50;94.70;;;;;;4871444;29;20163;-66
2021/01/28 06:51:59;;;;;;;11.00;4.97;;;7.50;94.70;;;;;;4896876;29;20029;-66
2021/01/28 06:54:53;;;;;;;12.63;5.13;;;7.50;94.70;;;;;;4897356;29;20025;-67
2021/01/28 06:58:01;;;;;;;14.18;4.00;;;7.50;94.70;;;;;;4891738;29;20123;-66
2021/01/28 07:00:45;;;;;;;9.25;4.30;;;7.50;94.70;;;;;;4896602;29;20111;-66
2021/01/28 07:03:38;;;;;;;10.52;4.78;;;7.50;94.70;;;;;;4897562;29;20024;-69
2021/01/28 07:06:10;;;;;;;13.20;5.50;;;7.50;94.70;;;;;;4897984;29;20028;-67
2021/01/28 07:08:58;;;;;;;10.80;4.97;;;7.50;94.70;;;;;;4898269;29;20028;-69
2021/01/28 07:11:35;;;;;;;12.43;5.78;;;7.50;94.80;;;;;;4897186;29;20084;-69
2021/01/28 07:14:05;;;;;;;9.57;5.38;;;7.40;94.80;;;;;;4896657;29;20043;-65
2021/01/28 07:16:33;;;;;;;8.35;5.13;;;7.50;94.90;;;;;;4897028;29;20025;-68
2021/01/28 07:19:15;;;;;;;13.50;6.10;;;7.40;94.80;;;;;;4897089;29;20044;-66
2021/01/28 07:21:46;;;;;;;9.63;5.22;;;7.50;94.90;;;;;;4883324;29;20071;-66
2021/01/28 07:24:35;;;;;;;11.95;5.50;;;7.50;94.90;;;;;;4900090;29;20027;-69
2021/01/28 07:27:06;;;;;;;12.23;6.00;;;7.40;94.90;;;;;;4897511;29;20089;-66
2021/01/28 07:29:34;;;;;;;9.43;5.80;;;7.40;94.90;;;;;;4899727;29;20032;-67
2021/01/28 07:32:11;;;;;;;14.27;6.85;;;7.40;94.90;;;;;;4900625;29;20044;-68
2021/01/28 07:34:37;;;;;;;20.02;6.75;;;7.40;95.00;;;;;;4899893;29;20021;-66
2021/01/28 07:37:18;;;;;;;11.82;5.88;;;7.40;95.00;;;;;;4900756;29;20104;-65
2021/01/28 07:39:44;;;;;;;11.20;5.97;;;7.40;95.00;;;;;;4899592;29;20409;-66
2021/01/28 07:42:16;;;;;;;10.90;5.45;;;7.30;95.20;;;;;;4888217;29;20079;-68
2021/01/28 07:44:46;;;;;;;13.65;6.93;;;7.30;95.00;;;;;;4896934;29;20036;-67
2021/01/28 07:47:29;;;;;;;132.65;12.30;;;7.30;95.00;;;;;;4889906;29;20032;-67
2021/01/28 07:50:26;;;;;;;9.68;5.88;;;7.30;95.00;;;;;;4881459;29;20033;-66
2021/01/28 07:52:52;;;;;;;26.80;5.78;;;7.40;95.10;;;;;;4881531;29;20045;-66
2021/01/28 07:55:37;;;;;;;12.80;5.03;;;7.30;95.10;;;;;;4881062;29;20083;-67
2021/01/28 07:58:20;;;;;;;14.05;5.47;;;7.30;95.10;;;;;;4881186;29;20608;-69
2021/01/28 08:00:48;;;;;;;22.15;4.93;;;7.30;95.10;;;;;;4893693;29;20032;-67
2021/01/28 08:03:43;;;;;;;53.25;7.00;;;7.30;95.10;;;;;;4897315;29;20040;-68
2021/01/28 08:06:12;;;;;;;9.48;4.78;;;7.40;95.10;;;;;;4891120;29;20033;-67
2021/01/28 08:08:38;;;;;;;10.30;5.47;;;7.40;95.10;;;;;;4899241;29;20024;-66
2021/01/28 08:11:24;;;;;;;9.23;6.38;;;7.40;95.00;;;;;;4895736;29;20036;-67
2021/01/28 08:13:57;;;;;;;429.85;21.60;;;7.40;95.00;;;;;;4881697;29;20048;-67
2021/01/28 08:16:23;;;;;;;8.48;4.43;;;7.50;95.00;;;;;;4889789;29;20028;-68
2021/01/28 08:19:00;;;;;;;7.43;4.50;;;7.50;94.90;;;;;;4897718;29;20032;-67
2021/01/28 08:21:27;;;;;;;7.20;4.55;;;7.50;94.80;;;;;;4899612;29;20028;-70
2021/01/28 08:23:53;;;;;;;9.98;6.55;;;7.60;94.70;;;;;;4899184;29;20028;-66
2021/01/28 08:26:30;;;;;;;12.10;5.93;;;7.70;94.70;;;;;;4899264;29;20033;-70
2021/01/28 08:29:25;;;;;;;7.93;4.45;;;7.70;94.60;;;;;;4899664;29;20459;-70
2021/01/28 08:31:55;;;;;;;10.63;5.28;;;7.80;94.50;;;;;;4868960;29;20052;-66
2021/01/28 08:34:24;;;;;;;7.10;4.30;;;7.80;94.50;;;;;;4896834;29;20029;-68
2021/01/28 08:37:02;;;;;;;6.85;5.20;;;7.90;94.40;;;;;;4875995;29;20028;-68
2021/01/28 08:39:31;;;;;;;6.85;5.10;;;7.90;94.30;;;;;;4899258;29;20036;-68
2021/01/28 08:42:06;;;;;;;8.00;5.13;;;7.90;94.20;;;;;;4892152;29;20025;-69
2021/01/28 08:44:33;;;;;;;9.88;4.70;;;8.00;94.20;;;;;;4895587;29;20036;-69
2021/01/28 08:47:14;;;;;;;12.82;4.75;;;8.00;94.10;;;;;;4898661;29;20029;-69
2021/01/28 08:49:40;;;;;;;6.55;4.65;;;8.00;94.10;;;;;;4898963;29;20107;-68
2021/01/28 08:52:11;;;;;;;7.20;4.43;;;8.00;94.00;;;;;;4896943;29;20111;-67
2021/01/28 08:54:44;;;;;;;6.80;4.93;;;8.10;93.90;;;;;;4891342;29;20112;-69
2021/01/28 08:57:14;;;;;;;6.68;5.40;;;8.10;93.90;;;;;;4880053;29;20071;-69
2021/01/28 08:59:50;;;;;;;8.07;4.93;;;8.10;93.90;;;;;;4879307;29;20032;-68
2021/01/28 09:02:29;;;;;;;7.38;6.03;;;8.10;93.90;;;;;;4881098;29;20029;-68
2021/01/28 09:05:24;;;;;;;8.50;5.07;;;8.10;93.90;;;;;;4879826;29;20040;-69
2021/01/28 09:08:01;;;;;;;6.93;5.10;;;8.10;93.80;;;;;;4858336;29;20414;-69
2021/01/28 09:10:37;;;;;;;7.53;5.50;;;8.10;93.80;;;;;;4879834;29;20029;-69
2021/01/28 09:13:24;;;;;;;8.77;6.25;;;8.20;93.80;;;;;;4879696;29;20037;-69
2021/01/28 09:16:04;;;;;;;9.88;6.28;;;8.20;93.80;;;;;;4881006;29;20032;-68
2021/01/28 09:18:33;;;;;;;8.57;6.47;;;8.20;93.70;;;;;;4879801;29;20052;-69
2021/01/28 09:21:35;;;;;;;9.60;5.85;;;8.20;93.70;;;;;;4879403;29;20097;-68
2021/01/28 09:24:31;;;;;;;7.53;6.10;;;8.20;93.60;;;;;;4879962;29;20371;-70
2021/01/28 09:27:15;;;;;;;9.60;7.05;;;8.30;93.60;;;;;;4879234;29;20040;-69
2021/01/28 09:29:42;;;;;;;6.97;5.78;;;8.20;93.60;;;;;;4881447;29;20025;-69
2021/01/28 09:32:22;;;;;;;8.25;5.97;;;8.20;93.60;;;;;;4879781;29;20045;-69
2021/01/28 09:35:14;;;;;;;8.05;5.97;;;8.20;93.60;;;;;;4879105;29;20524;-68
2021/01/28 09:37:46;;;;;;;9.65;6.85;;;8.30;93.60;;;;;;4895050;29;20017;-68
2021/01/28 09:40:36;;;;;;;8.50;6.68;;;8.30;93.60;;;;;;4897702;29;20040;-68
2021/01/28 09:43:24;;;;;;;10.15;7.78;;;8.30;93.80;;;;;;4888016;29;20039;-68
2021/01/28 09:46:11;;;;;;;7.95;7.03;;;8.30;93.50;;;;;;4862903;29;20037;-68
2021/01/28 09:48:38;;;;;;;12.93;9.48;;;8.30;93.50;;;;;;4879991;29;20580;-68
2021/01/28 09:51:05;;;;;;;11.10;7.40;;;8.30;93.50;;;;;;4897687;29;20036;-70
2021/01/28 09:53:31;;;;;;;11.32;9.35;;;8.40;93.50;;;;;;4895265;29;20101;-69
2021/01/28 09:55:57;;;;;;;10.38;9.13;;;8.40;93.50;;;;;;4890799;29;20029;-69
2021/01/28 09:58:23;;;;;;;10.95;9.77;;;8.30;93.50;;;;;;4897598;29;20108;-69
2021/01/28 10:00:50;;;;;;;10.40;8.73;;;8.30;93.50;;;;;;4897790;29;20036;-70
2021/01/28 10:03:15;;;;;;;10.25;8.57;;;8.30;93.50;;;;;;4897040;29;20124;-70
2021/01/28 10:05:41;;;;;;;11.55;9.38;;;8.30;93.50;;;;;;4897078;29;20557;-67
2021/01/28 10:08:09;;;;;;;10.60;9.43;;;8.40;93.50;;;;;;4897324;29;20032;-70
2021/01/28 10:10:37;;;;;;;10.93;9.32;;;8.30;93.50;;;;;;4896710;29;20077;-66
2021/01/28 10:13:10;;;;;;;11.43;9.38;;;8.30;93.80;;;;;;4897191;29;20371;-68
2021/01/28 10:15:36;;;;;;;21.58;10.20;;;8.30;93.50;;;;;;4894382;29;20025;-68
2021/01/28 10:18:01;;;;;;;9.52;8.52;;;8.40;93.50;;;;;;4891505;29;20052;-70
2021/01/28 10:20:28;;;;;;;12.45;11.00;;;8.40;93.50;;;;;;4890491;29;20028;-70
2021/01/28 10:22:57;;;;;;;12.95;9.60;;;8.40;93.50;;;;;;4896857;29;20130;-70
2021/01/28 10:25:23;;;;;;;12.65;10.90;;;8.40;93.50;;;;;;4879816;29;20079;-67
2021/01/28 10:27:49;;;;;;;13.15;10.82;;;8.50;93.50;;;;;;4897593;29;20036;-69
2021/01/28 10:30:16;;;;;;;12.00;9.80;;;8.40;93.40;;;;;;4879327;29;20021;-68
2021/01/28 10:32:43;;;;;;;12.13;9.82;;;8.50;93.50;;;;;;4895537;29;20088;-69
2021/01/28 10:35:10;;;;;;;36.00;11.15;;;8.50;93.40;;;;;;4897180;29;20029;-69
2021/01/28 10:37:35;;;;;;;12.70;9.88;;;8.60;93.40;;;;;;4888290;29;20610;-69
2021/01/28 10:40:01;;;;;;;11.60;9.93;;;8.60;93.30;;;;;;4878724;29;20104;-68
2021/01/28 10:42:38;;;;;;;11.38;10.18;;;8.60;93.30;;;;;;4879033;29;20057;-69
2021/01/28 10:45:26;;;;;;;10.88;9.45;;;8.70;93.30;;;;;;4862093;29;20025;-69
2021/01/28 10:47:52;;;;;;;15.27;9.82;;;8.70;93.20;;;;;;4905534;29;20035;-69
2021/01/28 10:50:21;;;;;;;11.43;9.93;;;8.70;93.20;;;;;;4902584;29;20025;-69
2021/01/28 10:52:48;;;;;;;19.60;10.80;;;8.70;93.10;;;;;;4887378;29;20060;-70
2021/01/28 10:55:13;;;;;;;13.98;11.02;;;8.70;93.20;;;;;;4913329;29;20082;-68
2021/01/28 10:57:39;;;;;;;25.23;12.02;;;8.60;93.10;;;;;;4897139;29;20057;-68
2021/01/28 11:00:05;;;;;;;15.35;11.23;;;8.60;93.10;;;;;;4892120;29;20032;-69
2021/01/28 11:02:31;;;;;;;14.18;10.80;;;8.60;93.20;;;;;;4887300;29;20073;-70
2021/01/28 11:04:56;;;;;;;12.57;10.77;;;8.70;93.20;;;;;;4898270;29;20114;-70
2021/01/28 11:07:22;;;;;;;47.53;13.45;;;8.70;93.20;;;;;;4917585;29;20025;-69
2021/01/28 11:09:47;;;;;;;12.02;10.75;;;8.70;93.20;;;;;;4901216;29;20501;-69
2021/01/28 11:12:13;;;;;;;18.00;11.20;;;8.60;93.20;;;;;;4919022;29;20044;-69
2021/01/28 11:14:38;;;;;;;96.45;13.27;;;8.60;93.20;;;;;;4918991;29;20017;-69
2021/01/28 11:17:04;;;;;;;16.25;12.25;;;8.70;93.30;;;;;;4899417;29;20025;-69
2021/01/28 11:19:29;;;;;;;14.57;11.68;;;8.70;93.30;;;;;;4901658;29;20087;-69
2021/01/28 11:21:55;;;;;;;12.98;10.63;;;8.70;93.30;;;;;;4901216;29;20060;-69
2021/01/28 11:24:20;;;;;;;12.65;11.23;;;8.70;93.30;;;;;;4881902;29;20075;-70
2021/01/28 11:26:46;;;;;;;13.60;11.70;;;8.70;93.30;;;;;;4896667;29;20028;-69
2021/01/28 11:29:12;;;;;;;12.25;10.75;;;8.70;93.30;;;;;;4893798;29;20021;-69
2021/01/28 11:31:38;;;;;;;12.40;10.75;;;8.70;93.40;;;;;;4899887;29;20634;-68
2021/01/28 11:34:04;;;;;;;13.75;11.48;;;8.70;93.30;;;;;;4882137;29;20037;-70
2021/01/28 11:36:31;;;;;;;10.85;9.75;;;8.70;93.30;;;;;;4887975;29;20029;-66
2021/01/28 11:38:56;;;;;;;10.60;9.35;;;8.70;93.30;;;;;;4899729;29;20028;-68
2021/01/28 11:41:22;;;;;;;12.05;8.60;;;8.70;93.30;;;;;;4881402;29;20533;-68
2021/01/28 11:43:47;;;;;;;11.85;8.57;;;8.80;93.30;;;;;;4881386;29;20112;-69
2021/01/28 11:46:13;;;;;;;8.93;8.02;;;8.90;93.20;;;;;;4897247;29;20055;-68
2021/01/28 11:48:38;;;;;;;9.48;8.57;;;8.90;93.10;;;;;;4898373;29;20041;-67
2021/01/28 11:51:04;;;;;;;7.40;6.70;;;9.00;93.10;;;;;;4899834;29;20021;-67
2021/01/28 11:53:29;;;;;;;8.38;7.47;;;9.00;93.00;;;;;;4881586;29;20048;-66
2021/01/28 11:55:55;;;;;;;7.88;7.18;;;9.00;93.00;;;;;;4880752;29;20080;-71
2021/01/28 11:58:22;;;;;;;8.60;7.80;;;9.00;93.00;;;;;;4880906;29;20124;-67
2021/01/28 12:00:48;;;;;;;8.75;7.95;;;9.10;93.10;;;;;;4888795;29;20020;-69
2021/01/28 12:03:13;;;;;;;9.07;7.75;;;9.10;93.00;;;;;;4903545;29;20048;-69
2021/01/28 12:05:39;;;;;;;9.02;8.23;;;9.10;93.00;;;;;;4875177;29;20156;-68
2021/01/28 12:08:04;;;;;;;9.32;8.32;;;9.10;92.90;;;;;;4880966;29;20048;-67
2021/01/28 12:10:33;;;;;;;9.93;9.00;;;9.10;93.00;;;;;;4904935;29;20103;-69
2021/01/28 12:12:59;;;;;;;9.35;8.45;;;9.10;93.00;;;;;;4918011;29;20163;-69
2021/01/28 12:15:26;;;;;;;11.52;8.60;;;9.10;93.00;;;;;;4896640;29;20029;-68
2021/01/28 12:17:52;;;;;;;8.98;8.18;;;9.10;92.80;;;;;;4899364;29;20493;-68
2021/01/28 12:20:24;;;;;;;9.23;8.43;;;9.10;92.90;;;;;;4885558;29;20108;-67
2021/01/28 12:22:50;;;;;;;8.80;8.00;;;9.20;93.00;;;;;;4879092;29;20032;-68
2021/01/28 12:25:15;;;;;;;9.82;8.50;;;9.10;92.90;;;;;;4881283;29;20029;-68
2021/01/28 12:27:41;;;;;;;8.85;8.05;;;9.10;92.90;;;;;;4898759;29;20029;-70
2021/01/28 12:30:10;;;;;;;7.70;7.00;;;9.00;92.90;;;;;;4885706;29;20029;-69
2021/01/28 12:32:36;;;;;;;8.80;8.00;;;9.00;92.90;;;;;;4889264;29;20051;-68
2021/01/28 12:35:04;;;;;;;10.13;7.63;;;8.90;93.00;;;;;;4880993;29;20493;-68
2021/01/28 12:37:29;;;;;;;13.27;7.70;;;8.80;93.00;;;;;;4877128;29;20127;-69
2021/01/28 12:39:55;;;;;;;10.38;7.85;;;8.80;93.10;;;;;;4899294;29;20099;-68
2021/01/28 12:42:20;;;;;;;8.48;7.68;;;8.80;93.20;;;;;;4881984;29;20025;-69
2021/01/28 12:44:46;;;;;;;8.50;7.70;;;8.90;93.30;;;;;;4881265;29;20112;-68
2021/01/28 12:47:11;;;;;;;12.40;7.32;;;8.90;93.20;;;;;;4892933;29;20025;-67
2021/01/28 12:49:37;;;;;;;8.10;7.30;;;9.00;93.10;;;;;;4882068;29;20048;-67
2021/01/28 12:52:03;;;;;;;6.93;6.32;;;9.00;93.10;;;;;;4896910;29;20043;-68
2021/01/28 12:54:28;;;;;;;6.90;6.00;;;9.00;93.10;;;;;;4881910;29;20363;-70
2021/01/28 12:56:54;;;;;;;6.85;6.15;;;9.00;92.90;;;;;;4898077;29;20123;-69
2021/01/28 12:59:20;;;;;;;6.18;5.57;;;9.00;92.90;;;;;;4898084;29;20028;-67
2021/01/28 13:01:46;;;;;;;5.38;4.88;;;9.00;93.00;;;;;;4895232;29;20465;-66
2021/01/28 13:04:12;;;;;;;5.70;5.20;;;9.00;93.00;;;;;;4896928;29;20032;-66